sensor_id;sensor_type;location;lat;lon;timestamp;P1;durP1;ratioP1;P2;durP2;ratioP2
17382;SDS011;8809;51.892;8.384;2022-12-16T00:00:29;19.88;;;12.98;;
17382;SDS011;8809;51.892;8.384;2022-12-16T00:02:58;19.40;;;13.68;;
17382;SDS011;8809;51.892;8.384;2022-12-16T00:05:26;23.35;;;14.38;;
17382;SDS011;8809;51.892;8.384;2022-12-16T00:07:53;22.27;;;13.35;;
17382;SDS011;8809;51.892;8.384;2022-12-16T00:10:20;17.55;;;12.80;;
17382;SDS011;8809;51.892;8.384;2022-12-16T00:12:47;19.52;;;13.23;;
17382;SDS011;8809;51.892;8.384;2022-12-16T00:15:15;22.90;;;15.25;;
17382;SDS011;8809;51.892;8.384;2022-12-16T00:17:45;26.27;;;17.38;;
17382;SDS011;8809;51.892;8.384;2022-12-16T00:20:17;27.50;;;17.85;;
17382;SDS011;8809;51.892;8.384;2022-12-16T00:22:44;25.80;;;16.50;;
17382;SDS011;8809;51.892;8.384;2022-12-16T00:25:10;26.83;;;15.93;;
17382;SDS011;8809;51.892;8.384;2022-12-16T00:27:37;21.90;;;15.07;;
17382;SDS011;8809;51.892;8.384;2022-12-16T00:30:04;26.30;;;15.43;;
17382;SDS011;8809;51.892;8.384;2022-12-16T00:32:34;20.08;;;13.73;;
17382;SDS011;8809;51.892;8.384;2022-12-16T00:35:01;20.35;;;13.82;;
17382;SDS011;8809;51.892;8.384;2022-12-16T00:37:29;22.67;;;14.10;;
17382;SDS011;8809;51.892;8.384;2022-12-16T00:39:56;22.33;;;15.07;;
17382;SDS011;8809;51.892;8.384;2022-12-16T00:42:23;20.35;;;13.27;;
17382;SDS011;8809;51.892;8.384;2022-12-16T00:44:50;24.27;;;14.40;;
17382;SDS011;8809;51.892;8.384;2022-12-16T00:47:17;21.42;;;13.18;;
17382;SDS011;8809;51.892;8.384;2022-12-16T00:49:44;24.35;;;14.18;;
17382;SDS011;8809;51.892;8.384;2022-12-16T00:52:11;23.40;;;14.63;;
17382;SDS011;8809;51.892;8.384;2022-12-16T00:54:39;21.70;;;13.40;;
17382;SDS011;8809;51.892;8.384;2022-12-16T00:57:06;22.38;;;13.25;;
17382;SDS011;8809;51.892;8.384;2022-12-16T00:59:33;21.92;;;14.40;;
17382;SDS011;8809;51.892;8.384;2022-12-16T01:02:00;21.02;;;13.93;;
17382;SDS011;8809;51.892;8.384;2022-12-16T01:04:27;21.33;;;13.48;;
17382;SDS011;8809;51.892;8.384;2022-12-16T01:06:53;24.35;;;14.68;;
17382;SDS011;8809;51.892;8.384;2022-12-16T01:09:20;23.05;;;14.30;;
17382;SDS011;8809;51.892;8.384;2022-12-16T01:11:48;23.90;;;14.00;;
17382;SDS011;8809;51.892;8.384;2022-12-16T01:14:15;26.05;;;16.10;;
17382;SDS011;8809;51.892;8.384;2022-12-16T01:16:42;27.13;;;14.80;;
17382;SDS011;8809;51.892;8.384;2022-12-16T01:19:09;21.60;;;14.50;;
17382;SDS011;8809;51.892;8.384;2022-12-16T01:21:36;23.88;;;13.73;;
17382;SDS011;8809;51.892;8.384;2022-12-16T01:24:03;23.35;;;15.07;;
17382;SDS011;8809;51.892;8.384;2022-12-16T01:26:31;22.08;;;13.30;;
17382;SDS011;8809;51.892;8.384;2022-12-16T01:28:59;23.75;;;14.00;;
17382;SDS011;8809;51.892;8.384;2022-12-16T01:31:26;22.38;;;14.10;;
17382;SDS011;8809;51.892;8.384;2022-12-16T01:33:52;21.27;;;13.70;;
17382;SDS011;8809;51.892;8.384;2022-12-16T01:36:19;22.15;;;12.95;;
17382;SDS011;8809;51.892;8.384;2022-12-16T01:38:47;19.60;;;12.75;;
17382;SDS011;8809;51.892;8.384;2022-12-16T01:41:14;21.25;;;13.23;;
17382;SDS011;8809;51.892;8.384;2022-12-16T01:43:43;21.45;;;14.05;;
17382;SDS011;8809;51.892;8.384;2022-12-16T01:46:14;19.80;;;12.38;;
17382;SDS011;8809;51.892;8.384;2022-12-16T01:48:47;21.25;;;12.70;;
17382;SDS011;8809;51.892;8.384;2022-12-16T01:51:19;21.45;;;12.27;;
17382;SDS011;8809;51.892;8.384;2022-12-16T01:53:50;22.63;;;13.52;;
17382;SDS011;8809;51.892;8.384;2022-12-16T01:56:21;17.08;;;11.80;;
17382;SDS011;8809;51.892;8.384;2022-12-16T01:58:52;20.75;;;12.68;;
17382;SDS011;8809;51.892;8.384;2022-12-16T02:01:22;19.75;;;11.80;;
17382;SDS011;8809;51.892;8.384;2022-12-16T02:03:49;20.63;;;13.13;;
17382;SDS011;8809;51.892;8.384;2022-12-16T02:06:18;22.23;;;13.20;;
17382;SDS011;8809;51.892;8.384;2022-12-16T02:08:45;21.63;;;12.65;;
17382;SDS011;8809;51.892;8.384;2022-12-16T02:11:27;18.00;;;11.77;;
17382;SDS011;8809;51.892;8.384;2022-12-16T02:14:18;19.95;;;11.80;;
17382;SDS011;8809;51.892;8.384;2022-12-16T02:16:58;17.77;;;11.65;;
17382;SDS011;8809;51.892;8.384;2022-12-16T02:19:49;18.98;;;11.65;;
17382;SDS011;8809;51.892;8.384;2022-12-16T02:22:36;18.55;;;11.98;;
17382;SDS011;8809;51.892;8.384;2022-12-16T02:25:24;22.27;;;12.27;;
17382;SDS011;8809;51.892;8.384;2022-12-16T02:28:14;21.48;;;12.05;;
17382;SDS011;8809;51.892;8.384;2022-12-16T02:31:02;17.98;;;11.65;;
17382;SDS011;8809;51.892;8.384;2022-12-16T02:33:42;18.00;;;11.70;;
17382;SDS011;8809;51.892;8.384;2022-12-16T02:36:20;19.23;;;11.60;;
17382;SDS011;8809;51.892;8.384;2022-12-16T02:38:54;18.27;;;11.77;;
17382;SDS011;8809;51.892;8.384;2022-12-16T02:41:26;19.45;;;12.85;;
17382;SDS011;8809;51.892;8.384;2022-12-16T02:44:03;23.27;;;13.98;;
17382;SDS011;8809;51.892;8.384;2022-12-16T02:46:38;22.75;;;14.27;;
17382;SDS011;8809;51.892;8.384;2022-12-16T02:49:07;19.98;;;12.35;;
17382;SDS011;8809;51.892;8.384;2022-12-16T02:51:35;21.20;;;12.70;;
17382;SDS011;8809;51.892;8.384;2022-12-16T02:54:03;16.42;;;12.50;;
17382;SDS011;8809;51.892;8.384;2022-12-16T02:56:38;21.50;;;13.30;;
17382;SDS011;8809;51.892;8.384;2022-12-16T02:59:17;22.10;;;12.75;;
17382;SDS011;8809;51.892;8.384;2022-12-16T03:01:51;23.02;;;12.50;;
17382;SDS011;8809;51.892;8.384;2022-12-16T03:04:25;21.60;;;11.80;;
17382;SDS011;8809;51.892;8.384;2022-12-16T03:06:57;18.83;;;12.07;;
17382;SDS011;8809;51.892;8.384;2022-12-16T03:09:27;19.45;;;12.68;;
17382;SDS011;8809;51.892;8.384;2022-12-16T03:11:58;20.55;;;11.90;;
17382;SDS011;8809;51.892;8.384;2022-12-16T03:14:30;22.73;;;12.88;;
17382;SDS011;8809;51.892;8.384;2022-12-16T03:17:01;19.38;;;11.32;;
17382;SDS011;8809;51.892;8.384;2022-12-16T03:19:29;20.25;;;12.20;;
17382;SDS011;8809;51.892;8.384;2022-12-16T03:21:58;16.65;;;11.70;;
17382;SDS011;8809;51.892;8.384;2022-12-16T03:24:29;20.10;;;13.40;;
17382;SDS011;8809;51.892;8.384;2022-12-16T03:27:00;19.77;;;13.27;;
17382;SDS011;8809;51.892;8.384;2022-12-16T03:29:35;20.80;;;11.55;;
17382;SDS011;8809;51.892;8.384;2022-12-16T03:32:12;17.13;;;10.95;;
17382;SDS011;8809;51.892;8.384;2022-12-16T03:34:43;25.88;;;14.68;;
17382;SDS011;8809;51.892;8.384;2022-12-16T03:37:14;20.73;;;12.57;;
17382;SDS011;8809;51.892;8.384;2022-12-16T03:39:42;20.02;;;12.38;;
17382;SDS011;8809;51.892;8.384;2022-12-16T03:42:13;16.67;;;11.32;;
17382;SDS011;8809;51.892;8.384;2022-12-16T03:44:41;16.92;;;11.32;;
17382;SDS011;8809;51.892;8.384;2022-12-16T03:47:09;16.23;;;11.32;;
17382;SDS011;8809;51.892;8.384;2022-12-16T03:49:38;17.58;;;11.25;;
17382;SDS011;8809;51.892;8.384;2022-12-16T03:52:05;22.00;;;13.55;;
17382;SDS011;8809;51.892;8.384;2022-12-16T03:54:32;19.75;;;11.20;;
17382;SDS011;8809;51.892;8.384;2022-12-16T03:57:00;19.88;;;12.65;;
17382;SDS011;8809;51.892;8.384;2022-12-16T03:59:27;19.52;;;12.13;;
17382;SDS011;8809;51.892;8.384;2022-12-16T04:01:54;18.08;;;11.60;;
17382;SDS011;8809;51.892;8.384;2022-12-16T04:04:21;18.45;;;11.27;;
17382;SDS011;8809;51.892;8.384;2022-12-16T04:06:49;18.02;;;11.27;;
17382;SDS011;8809;51.892;8.384;2022-12-16T04:09:36;18.90;;;10.98;;
17382;SDS011;8809;51.892;8.384;2022-12-16T04:12:03;17.10;;;11.75;;
17382;SDS011;8809;51.892;8.384;2022-12-16T04:14:48;18.92;;;11.27;;
17382;SDS011;8809;51.892;8.384;2022-12-16T04:17:32;17.30;;;11.02;;
17382;SDS011;8809;51.892;8.384;2022-12-16T04:20:17;17.77;;;12.10;;
17382;SDS011;8809;51.892;8.384;2022-12-16T04:23:04;16.88;;;10.88;;
17382;SDS011;8809;51.892;8.384;2022-12-16T04:25:49;18.63;;;11.10;;
17382;SDS011;8809;51.892;8.384;2022-12-16T04:28:15;17.30;;;10.63;;
17382;SDS011;8809;51.892;8.384;2022-12-16T04:30:42;13.82;;;10.07;;
17382;SDS011;8809;51.892;8.384;2022-12-16T04:33:09;17.58;;;11.52;;
17382;SDS011;8809;51.892;8.384;2022-12-16T04:35:56;17.88;;;10.93;;
17382;SDS011;8809;51.892;8.384;2022-12-16T04:38:39;21.67;;;12.20;;
17382;SDS011;8809;51.892;8.384;2022-12-16T04:41:23;19.55;;;11.60;;
17382;SDS011;8809;51.892;8.384;2022-12-16T04:44:07;19.10;;;10.90;;
17382;SDS011;8809;51.892;8.384;2022-12-16T04:46:51;18.95;;;11.35;;
17382;SDS011;8809;51.892;8.384;2022-12-16T04:49:36;19.30;;;10.38;;
17382;SDS011;8809;51.892;8.384;2022-12-16T04:52:20;15.88;;;10.00;;
17382;SDS011;8809;51.892;8.384;2022-12-16T04:55:07;16.58;;;9.27;;
17382;SDS011;8809;51.892;8.384;2022-12-16T04:57:53;16.83;;;10.25;;
17382;SDS011;8809;51.892;8.384;2022-12-16T05:00:41;16.42;;;9.43;;
17382;SDS011;8809;51.892;8.384;2022-12-16T05:03:26;13.88;;;9.35;;
17382;SDS011;8809;51.892;8.384;2022-12-16T05:06:11;16.10;;;10.27;;
17382;SDS011;8809;51.892;8.384;2022-12-16T05:08:55;14.73;;;9.93;;
17382;SDS011;8809;51.892;8.384;2022-12-16T05:11:42;16.80;;;11.02;;
17382;SDS011;8809;51.892;8.384;2022-12-16T05:14:26;17.73;;;10.85;;
17382;SDS011;8809;51.892;8.384;2022-12-16T05:17:11;17.40;;;10.60;;
17382;SDS011;8809;51.892;8.384;2022-12-16T05:19:55;18.33;;;10.23;;
17382;SDS011;8809;51.892;8.384;2022-12-16T05:22:40;14.75;;;9.48;;
17382;SDS011;8809;51.892;8.384;2022-12-16T05:25:24;16.17;;;10.38;;
17382;SDS011;8809;51.892;8.384;2022-12-16T05:28:11;16.35;;;10.63;;
17382;SDS011;8809;51.892;8.384;2022-12-16T05:30:55;17.38;;;10.88;;
17382;SDS011;8809;51.892;8.384;2022-12-16T05:33:40;17.85;;;10.15;;
17382;SDS011;8809;51.892;8.384;2022-12-16T05:36:24;20.48;;;12.20;;
17382;SDS011;8809;51.892;8.384;2022-12-16T05:39:09;20.75;;;10.98;;
17382;SDS011;8809;51.892;8.384;2022-12-16T05:41:53;17.77;;;10.85;;
17382;SDS011;8809;51.892;8.384;2022-12-16T05:44:39;14.82;;;9.60;;
17382;SDS011;8809;51.892;8.384;2022-12-16T05:47:24;15.45;;;10.50;;
17382;SDS011;8809;51.892;8.384;2022-12-16T05:50:09;17.73;;;10.98;;
17382;SDS011;8809;51.892;8.384;2022-12-16T05:52:54;16.40;;;9.80;;
17382;SDS011;8809;51.892;8.384;2022-12-16T05:55:39;14.50;;;9.23;;
17382;SDS011;8809;51.892;8.384;2022-12-16T05:58:24;19.63;;;10.38;;
17382;SDS011;8809;51.892;8.384;2022-12-16T06:01:10;15.82;;;9.88;;
17382;SDS011;8809;51.892;8.384;2022-12-16T06:03:55;18.65;;;11.18;;
17382;SDS011;8809;51.892;8.384;2022-12-16T06:06:40;17.73;;;11.10;;
17382;SDS011;8809;51.892;8.384;2022-12-16T06:09:24;16.67;;;10.07;;
17382;SDS011;8809;51.892;8.384;2022-12-16T06:12:09;14.32;;;10.07;;
17382;SDS011;8809;51.892;8.384;2022-12-16T06:14:53;17.15;;;10.23;;
17382;SDS011;8809;51.892;8.384;2022-12-16T06:17:41;15.65;;;9.70;;
17382;SDS011;8809;51.892;8.384;2022-12-16T06:20:26;19.45;;;10.93;;
17382;SDS011;8809;51.892;8.384;2022-12-16T06:23:11;18.08;;;10.63;;
17382;SDS011;8809;51.892;8.384;2022-12-16T06:25:55;17.92;;;11.32;;
17382;SDS011;8809;51.892;8.384;2022-12-16T06:28:39;16.73;;;10.00;;
17382;SDS011;8809;51.892;8.384;2022-12-16T06:31:23;16.35;;;10.35;;
17382;SDS011;8809;51.892;8.384;2022-12-16T06:34:09;14.10;;;9.60;;
17382;SDS011;8809;51.892;8.384;2022-12-16T06:36:53;16.48;;;9.88;;
17382;SDS011;8809;51.892;8.384;2022-12-16T06:39:38;14.98;;;9.52;;
17382;SDS011;8809;51.892;8.384;2022-12-16T06:42:22;19.27;;;11.30;;
17382;SDS011;8809;51.892;8.384;2022-12-16T06:45:07;18.40;;;10.90;;
17382;SDS011;8809;51.892;8.384;2022-12-16T06:47:51;16.67;;;10.40;;
17382;SDS011;8809;51.892;8.384;2022-12-16T06:50:37;17.50;;;10.40;;
17382;SDS011;8809;51.892;8.384;2022-12-16T06:53:21;15.57;;;9.98;;
17382;SDS011;8809;51.892;8.384;2022-12-16T06:56:06;14.63;;;10.23;;
17382;SDS011;8809;51.892;8.384;2022-12-16T06:58:51;16.98;;;10.45;;
17382;SDS011;8809;51.892;8.384;2022-12-16T07:01:35;15.20;;;9.32;;
17382;SDS011;8809;51.892;8.384;2022-12-16T07:04:20;19.67;;;10.50;;
17382;SDS011;8809;51.892;8.384;2022-12-16T07:07:05;16.00;;;10.93;;
17382;SDS011;8809;51.892;8.384;2022-12-16T07:10:01;16.88;;;10.77;;
17382;SDS011;8809;51.892;8.384;2022-12-16T07:12:46;20.48;;;11.50;;
17382;SDS011;8809;51.892;8.384;2022-12-16T07:15:30;20.77;;;10.65;;
17382;SDS011;8809;51.892;8.384;2022-12-16T07:18:14;16.30;;;10.18;;
17382;SDS011;8809;51.892;8.384;2022-12-16T07:20:59;17.75;;;10.60;;
17382;SDS011;8809;51.892;8.384;2022-12-16T07:23:44;16.13;;;10.02;;
17382;SDS011;8809;51.892;8.384;2022-12-16T07:26:28;15.55;;;10.35;;
17382;SDS011;8809;51.892;8.384;2022-12-16T07:29:13;23.33;;;11.40;;
17382;SDS011;8809;51.892;8.384;2022-12-16T07:31:58;14.65;;;10.85;;
17382;SDS011;8809;51.892;8.384;2022-12-16T07:34:42;19.23;;;11.25;;
17382;SDS011;8809;51.892;8.384;2022-12-16T07:37:26;16.77;;;10.98;;
17382;SDS011;8809;51.892;8.384;2022-12-16T07:40:12;17.77;;;10.98;;
17382;SDS011;8809;51.892;8.384;2022-12-16T07:42:59;18.05;;;10.95;;
17382;SDS011;8809;51.892;8.384;2022-12-16T07:45:43;19.25;;;11.98;;
17382;SDS011;8809;51.892;8.384;2022-12-16T07:48:28;21.33;;;12.65;;
17382;SDS011;8809;51.892;8.384;2022-12-16T07:51:12;22.30;;;13.50;;
17382;SDS011;8809;51.892;8.384;2022-12-16T07:54:00;18.52;;;11.95;;
17382;SDS011;8809;51.892;8.384;2022-12-16T07:56:48;20.58;;;11.73;;
17382;SDS011;8809;51.892;8.384;2022-12-16T07:59:33;16.80;;;11.32;;
17382;SDS011;8809;51.892;8.384;2022-12-16T08:02:18;19.60;;;12.10;;
17382;SDS011;8809;51.892;8.384;2022-12-16T08:05:02;18.67;;;11.65;;
17382;SDS011;8809;51.892;8.384;2022-12-16T08:07:47;21.27;;;11.73;;
17382;SDS011;8809;51.892;8.384;2022-12-16T08:10:31;19.17;;;11.63;;
17382;SDS011;8809;51.892;8.384;2022-12-16T08:13:17;19.33;;;12.43;;
17382;SDS011;8809;51.892;8.384;2022-12-16T08:16:02;19.60;;;11.40;;
17382;SDS011;8809;51.892;8.384;2022-12-16T08:18:46;17.75;;;11.07;;
17382;SDS011;8809;51.892;8.384;2022-12-16T08:21:30;16.13;;;10.70;;
17382;SDS011;8809;51.892;8.384;2022-12-16T08:24:15;14.77;;;10.07;;
17382;SDS011;8809;51.892;8.384;2022-12-16T08:26:59;16.65;;;11.07;;
17382;SDS011;8809;51.892;8.384;2022-12-16T08:29:45;19.42;;;11.63;;
17382;SDS011;8809;51.892;8.384;2022-12-16T08:32:29;17.35;;;10.73;;
17382;SDS011;8809;51.892;8.384;2022-12-16T08:35:14;17.63;;;11.07;;
17382;SDS011;8809;51.892;8.384;2022-12-16T08:37:58;18.55;;;10.85;;
17382;SDS011;8809;51.892;8.384;2022-12-16T08:40:43;17.80;;;10.60;;
17382;SDS011;8809;51.892;8.384;2022-12-16T08:43:29;18.42;;;10.70;;
17382;SDS011;8809;51.892;8.384;2022-12-16T08:46:15;14.73;;;10.15;;
17382;SDS011;8809;51.892;8.384;2022-12-16T08:49:00;16.42;;;9.95;;
17382;SDS011;8809;51.892;8.384;2022-12-16T08:51:44;15.40;;;10.20;;
17382;SDS011;8809;51.892;8.384;2022-12-16T08:54:28;16.63;;;9.68;;
17382;SDS011;8809;51.892;8.384;2022-12-16T08:57:12;18.75;;;10.65;;
17382;SDS011;8809;51.892;8.384;2022-12-16T08:59:59;17.02;;;11.02;;
17382;SDS011;8809;51.892;8.384;2022-12-16T09:02:44;14.82;;;9.52;;
17382;SDS011;8809;51.892;8.384;2022-12-16T09:05:29;14.00;;;8.95;;
17382;SDS011;8809;51.892;8.384;2022-12-16T09:08:13;15.40;;;9.98;;
17382;SDS011;8809;51.892;8.384;2022-12-16T09:10:59;13.27;;;9.50;;
17382;SDS011;8809;51.892;8.384;2022-12-16T09:13:43;13.18;;;8.65;;
17382;SDS011;8809;51.892;8.384;2022-12-16T09:16:33;14.20;;;8.35;;
17382;SDS011;8809;51.892;8.384;2022-12-16T09:19:18;13.27;;;8.05;;
17382;SDS011;8809;51.892;8.384;2022-12-16T09:22:03;14.75;;;8.38;;
17382;SDS011;8809;51.892;8.384;2022-12-16T09:24:47;13.50;;;8.32;;
17382;SDS011;8809;51.892;8.384;2022-12-16T09:27:31;12.27;;;7.70;;
17382;SDS011;8809;51.892;8.384;2022-12-16T09:30:16;12.50;;;7.50;;
17382;SDS011;8809;51.892;8.384;2022-12-16T09:33:00;13.27;;;8.20;;
17382;SDS011;8809;51.892;8.384;2022-12-16T09:35:46;12.20;;;7.75;;
17382;SDS011;8809;51.892;8.384;2022-12-16T09:38:30;12.98;;;7.75;;
17382;SDS011;8809;51.892;8.384;2022-12-16T09:41:22;12.02;;;8.60;;
17382;SDS011;8809;51.892;8.384;2022-12-16T09:44:18;12.68;;;7.60;;
17382;SDS011;8809;51.892;8.384;2022-12-16T09:47:12;12.00;;;8.55;;
17382;SDS011;8809;51.892;8.384;2022-12-16T09:50:02;11.90;;;8.63;;
17382;SDS011;8809;51.892;8.384;2022-12-16T09:52:53;12.70;;;8.23;;
17382;SDS011;8809;51.892;8.384;2022-12-16T09:55:42;16.58;;;8.88;;
17382;SDS011;8809;51.892;8.384;2022-12-16T09:58:29;13.55;;;8.45;;
17382;SDS011;8809;51.892;8.384;2022-12-16T10:01:18;11.65;;;8.20;;
17382;SDS011;8809;51.892;8.384;2022-12-16T10:04:04;10.80;;;8.10;;
17382;SDS011;8809;51.892;8.384;2022-12-16T10:06:50;13.38;;;8.50;;
17382;SDS011;8809;51.892;8.384;2022-12-16T10:09:40;13.13;;;7.85;;
17382;SDS011;8809;51.892;8.384;2022-12-16T10:12:35;13.38;;;9.15;;
17382;SDS011;8809;51.892;8.384;2022-12-16T10:15:27;12.77;;;8.52;;
17382;SDS011;8809;51.892;8.384;2022-12-16T10:18:26;11.00;;;7.88;;
17382;SDS011;8809;51.892;8.384;2022-12-16T10:21:22;12.52;;;8.35;;
17382;SDS011;8809;51.892;8.384;2022-12-16T10:24:15;9.63;;;7.80;;
17382;SDS011;8809;51.892;8.384;2022-12-16T10:27:11;10.50;;;8.38;;
17382;SDS011;8809;51.892;8.384;2022-12-16T10:29:57;12.35;;;8.20;;
17382;SDS011;8809;51.892;8.384;2022-12-16T10:32:45;11.73;;;7.72;;
17382;SDS011;8809;51.892;8.384;2022-12-16T10:35:33;10.80;;;7.85;;
17382;SDS011;8809;51.892;8.384;2022-12-16T10:38:21;12.45;;;8.10;;
17382;SDS011;8809;51.892;8.384;2022-12-16T10:41:08;13.75;;;8.82;;
17382;SDS011;8809;51.892;8.384;2022-12-16T10:43:57;13.90;;;8.63;;
17382;SDS011;8809;51.892;8.384;2022-12-16T10:46:49;13.90;;;9.57;;
17382;SDS011;8809;51.892;8.384;2022-12-16T10:49:34;12.98;;;8.43;;
17382;SDS011;8809;51.892;8.384;2022-12-16T10:52:18;11.93;;;8.65;;
17382;SDS011;8809;51.892;8.384;2022-12-16T10:55:05;13.43;;;8.77;;
17382;SDS011;8809;51.892;8.384;2022-12-16T10:58:01;15.15;;;10.25;;
17382;SDS011;8809;51.892;8.384;2022-12-16T11:00:51;14.23;;;9.45;;
17382;SDS011;8809;51.892;8.384;2022-12-16T11:03:38;20.65;;;12.38;;
17382;SDS011;8809;51.892;8.384;2022-12-16T11:06:24;17.48;;;12.20;;
17382;SDS011;8809;51.892;8.384;2022-12-16T11:09:13;16.38;;;11.40;;
17382;SDS011;8809;51.892;8.384;2022-12-16T11:12:13;19.08;;;13.15;;
17382;SDS011;8809;51.892;8.384;2022-12-16T11:15:11;20.55;;;13.18;;
17382;SDS011;8809;51.892;8.384;2022-12-16T11:18:04;18.20;;;12.13;;
17382;SDS011;8809;51.892;8.384;2022-12-16T11:21:02;18.55;;;12.07;;
17382;SDS011;8809;51.892;8.384;2022-12-16T11:23:59;15.30;;;11.25;;
17382;SDS011;8809;51.892;8.384;2022-12-16T11:26:51;15.75;;;10.18;;
17382;SDS011;8809;51.892;8.384;2022-12-16T11:29:47;14.02;;;9.65;;
17382;SDS011;8809;51.892;8.384;2022-12-16T11:32:35;20.13;;;12.38;;
17382;SDS011;8809;51.892;8.384;2022-12-16T11:35:23;18.60;;;12.27;;
17382;SDS011;8809;51.892;8.384;2022-12-16T11:38:22;18.02;;;12.38;;
17382;SDS011;8809;51.892;8.384;2022-12-16T11:41:14;20.35;;;12.82;;
17382;SDS011;8809;51.892;8.384;2022-12-16T11:44:07;18.70;;;12.73;;
17382;SDS011;8809;51.892;8.384;2022-12-16T11:46:59;17.70;;;12.70;;
17382;SDS011;8809;51.892;8.384;2022-12-16T11:49:43;16.75;;;12.63;;
17382;SDS011;8809;51.892;8.384;2022-12-16T11:52:29;22.02;;;14.73;;
17382;SDS011;8809;51.892;8.384;2022-12-16T11:55:16;21.88;;;14.70;;
17382;SDS011;8809;51.892;8.384;2022-12-16T11:58:05;23.63;;;15.70;;
17382;SDS011;8809;51.892;8.384;2022-12-16T12:01:02;18.80;;;13.73;;
17382;SDS011;8809;51.892;8.384;2022-12-16T12:03:53;19.80;;;13.90;;
17382;SDS011;8809;51.892;8.384;2022-12-16T12:09:57;21.27;;;13.68;;
17382;SDS011;8809;51.892;8.384;2022-12-16T12:12:52;21.05;;;13.60;;
17382;SDS011;8809;51.892;8.384;2022-12-16T12:15:40;18.45;;;13.57;;
17382;SDS011;8809;51.892;8.384;2022-12-16T12:18:35;17.77;;;12.80;;
17382;SDS011;8809;51.892;8.384;2022-12-16T12:21:23;20.08;;;13.10;;
17382;SDS011;8809;51.892;8.384;2022-12-16T12:24:07;18.25;;;13.10;;
17382;SDS011;8809;51.892;8.384;2022-12-16T12:27:07;19.10;;;12.93;;
17382;SDS011;8809;51.892;8.384;2022-12-16T12:30:04;17.55;;;12.23;;
17382;SDS011;8809;51.892;8.384;2022-12-16T12:32:58;26.17;;;16.52;;
17382;SDS011;8809;51.892;8.384;2022-12-16T12:36:03;22.13;;;14.43;;
17382;SDS011;8809;51.892;8.384;2022-12-16T12:38:57;25.38;;;16.50;;
17382;SDS011;8809;51.892;8.384;2022-12-16T12:41:59;20.70;;;14.68;;
17382;SDS011;8809;51.892;8.384;2022-12-16T12:44:57;21.73;;;15.20;;
17382;SDS011;8809;51.892;8.384;2022-12-16T12:48:00;20.92;;;15.25;;
17382;SDS011;8809;51.892;8.384;2022-12-16T12:50:52;26.92;;;17.42;;
17382;SDS011;8809;51.892;8.384;2022-12-16T12:53:44;23.25;;;15.50;;
17382;SDS011;8809;51.892;8.384;2022-12-16T12:56:42;21.67;;;14.43;;
17382;SDS011;8809;51.892;8.384;2022-12-16T12:59:36;20.92;;;12.88;;
17382;SDS011;8809;51.892;8.384;2022-12-16T13:02:38;18.33;;;12.52;;
17382;SDS011;8809;51.892;8.384;2022-12-16T13:05:31;23.50;;;14.60;;
17382;SDS011;8809;51.892;8.384;2022-12-16T13:08:30;20.40;;;13.27;;
17382;SDS011;8809;51.892;8.384;2022-12-16T13:11:16;18.83;;;12.20;;
17382;SDS011;8809;51.892;8.384;2022-12-16T13:14:00;18.95;;;13.48;;
17382;SDS011;8809;51.892;8.384;2022-12-16T13:16:56;19.50;;;14.52;;
17382;SDS011;8809;51.892;8.384;2022-12-16T13:19:43;29.88;;;19.15;;
17382;SDS011;8809;51.892;8.384;2022-12-16T13:22:39;27.55;;;19.58;;
17382;SDS011;8809;51.892;8.384;2022-12-16T13:28:34;20.20;;;14.57;;
17382;SDS011;8809;51.892;8.384;2022-12-16T13:31:20;21.08;;;14.90;;
17382;SDS011;8809;51.892;8.384;2022-12-16T13:34:12;18.90;;;13.45;;
17382;SDS011;8809;51.892;8.384;2022-12-16T13:37:06;20.55;;;13.32;;
17382;SDS011;8809;51.892;8.384;2022-12-16T13:40:16;18.50;;;13.07;;
17382;SDS011;8809;51.892;8.384;2022-12-16T13:43:03;20.92;;;13.07;;
17382;SDS011;8809;51.892;8.384;2022-12-16T13:48:57;20.73;;;14.50;;
17382;SDS011;8809;51.892;8.384;2022-12-16T13:52:25;18.55;;;12.77;;
17382;SDS011;8809;51.892;8.384;2022-12-16T13:55:30;15.98;;;11.18;;
17382;SDS011;8809;51.892;8.384;2022-12-16T13:58:21;15.02;;;10.88;;
17382;SDS011;8809;51.892;8.384;2022-12-16T14:01:15;16.25;;;10.98;;
17382;SDS011;8809;51.892;8.384;2022-12-16T14:04:08;13.18;;;9.95;;
17382;SDS011;8809;51.892;8.384;2022-12-16T14:06:59;15.48;;;10.45;;
17382;SDS011;8809;51.892;8.384;2022-12-16T14:09:46;16.40;;;10.88;;
17382;SDS011;8809;51.892;8.384;2022-12-16T14:12:41;14.30;;;10.23;;
17382;SDS011;8809;51.892;8.384;2022-12-16T14:15:38;13.48;;;10.55;;
17382;SDS011;8809;51.892;8.384;2022-12-16T14:18:35;13.68;;;11.63;;
17382;SDS011;8809;51.892;8.384;2022-12-16T14:21:27;18.13;;;12.15;;
17382;SDS011;8809;51.892;8.384;2022-12-16T14:24:23;19.20;;;12.05;;
17382;SDS011;8809;51.892;8.384;2022-12-16T14:27:14;14.65;;;11.00;;
17382;SDS011;8809;51.892;8.384;2022-12-16T14:30:01;16.73;;;11.20;;
17382;SDS011;8809;51.892;8.384;2022-12-16T14:32:47;16.70;;;11.93;;
17382;SDS011;8809;51.892;8.384;2022-12-16T14:35:31;16.45;;;10.65;;
17382;SDS011;8809;51.892;8.384;2022-12-16T14:38:23;13.70;;;10.75;;
17382;SDS011;8809;51.892;8.384;2022-12-16T14:41:11;12.55;;;9.27;;
17382;SDS011;8809;51.892;8.384;2022-12-16T14:43:56;13.15;;;10.40;;
17382;SDS011;8809;51.892;8.384;2022-12-16T14:46:40;13.80;;;9.10;;
17382;SDS011;8809;51.892;8.384;2022-12-16T14:49:26;14.63;;;9.63;;
17382;SDS011;8809;51.892;8.384;2022-12-16T14:52:16;14.32;;;10.23;;
17382;SDS011;8809;51.892;8.384;2022-12-16T14:55:12;12.00;;;9.38;;
17382;SDS011;8809;51.892;8.384;2022-12-16T14:58:04;12.90;;;9.23;;
17382;SDS011;8809;51.892;8.384;2022-12-16T15:00:51;16.95;;;13.77;;
17382;SDS011;8809;51.892;8.384;2022-12-16T15:03:37;13.98;;;10.32;;
17382;SDS011;8809;51.892;8.384;2022-12-16T15:06:25;14.57;;;11.30;;
17382;SDS011;8809;51.892;8.384;2022-12-16T15:09:14;14.63;;;10.70;;
17382;SDS011;8809;51.892;8.384;2022-12-16T15:12:03;15.98;;;10.98;;
17382;SDS011;8809;51.892;8.384;2022-12-16T15:14:51;14.75;;;11.32;;
17382;SDS011;8809;51.892;8.384;2022-12-16T15:17:41;15.18;;;11.18;;
17382;SDS011;8809;51.892;8.384;2022-12-16T15:20:30;17.95;;;13.02;;
17382;SDS011;8809;51.892;8.384;2022-12-16T15:23:18;22.02;;;13.77;;
17382;SDS011;8809;51.892;8.384;2022-12-16T15:26:06;17.63;;;12.63;;
17382;SDS011;8809;51.892;8.384;2022-12-16T15:28:51;23.13;;;15.05;;
17382;SDS011;8809;51.892;8.384;2022-12-16T15:31:38;20.10;;;14.30;;
17382;SDS011;8809;51.892;8.384;2022-12-16T15:34:27;27.13;;;17.58;;
17382;SDS011;8809;51.892;8.384;2022-12-16T15:37:14;22.75;;;16.83;;
17382;SDS011;8809;51.892;8.384;2022-12-16T15:40:00;23.67;;;16.90;;
17382;SDS011;8809;51.892;8.384;2022-12-16T15:42:48;22.10;;;15.77;;
17382;SDS011;8809;51.892;8.384;2022-12-16T15:45:34;28.08;;;18.52;;
17382;SDS011;8809;51.892;8.384;2022-12-16T15:48:20;27.85;;;18.58;;
17382;SDS011;8809;51.892;8.384;2022-12-16T15:51:21;25.75;;;15.70;;
17382;SDS011;8809;51.892;8.384;2022-12-16T15:54:12;21.02;;;14.27;;
17382;SDS011;8809;51.892;8.384;2022-12-16T15:56:59;17.10;;;12.75;;
17382;SDS011;8809;51.892;8.384;2022-12-16T15:59:56;15.35;;;11.35;;
17382;SDS011;8809;51.892;8.384;2022-12-16T16:02:46;22.20;;;14.27;;
17382;SDS011;8809;51.892;8.384;2022-12-16T16:05:33;27.08;;;17.40;;
17382;SDS011;8809;51.892;8.384;2022-12-16T16:08:19;26.38;;;16.85;;
17382;SDS011;8809;51.892;8.384;2022-12-16T16:11:03;22.85;;;15.57;;
17382;SDS011;8809;51.892;8.384;2022-12-16T16:13:48;28.45;;;18.20;;
17382;SDS011;8809;51.892;8.384;2022-12-16T16:16:32;26.63;;;17.83;;
17382;SDS011;8809;51.892;8.384;2022-12-16T16:19:19;27.20;;;18.25;;